createdAt,value
2017-01-22T00:00:20.871Z,0
2017-01-22T00:01:21.245Z,0
2017-01-22T00:02:20.819Z,0
2017-01-22T00:03:21.481Z,0
2017-01-22T00:04:20.752Z,0
2017-01-22T00:05:20.730Z,0
2017-01-22T00:06:19.901Z,0
2017-01-22T00:07:21.076Z,0
2017-01-22T00:08:20.696Z,0
2017-01-22T00:09:21.023Z,0
2017-01-22T00:10:20.974Z,0
2017-01-22T00:11:20.165Z,0
2017-01-22T00:12:20.931Z,0
2017-01-22T00:13:20.893Z,0
2017-01-22T00:14:19.663Z,0
2017-01-22T00:15:20.838Z,0
2017-01-22T00:16:20.018Z,0
2017-01-22T00:17:20.798Z,0
2017-01-22T00:18:20.749Z,0
2017-01-22T00:19:21.091Z,0
2017-01-22T00:20:20.711Z,0
2017-01-22T00:21:20.669Z,0
2017-01-22T00:22:20.942Z,0
2017-01-22T00:23:20.614Z,0
2017-01-22T00:24:20.582Z,0
2017-01-22T00:25:20.149Z,0
2017-01-22T00:26:20.543Z,0
2017-01-22T00:27:20.491Z,0
2017-01-22T00:28:20.487Z,0
2017-01-22T00:29:20.031Z,0
2017-01-22T00:30:20.406Z,0
2017-01-22T00:31:19.969Z,0
2017-01-22T00:32:20.361Z,0
2017-01-22T00:33:20.367Z,0
2017-01-22T00:34:19.905Z,0
2017-01-22T00:35:20.268Z,0
2017-01-22T00:36:19.437Z,0
2017-01-22T00:37:19.807Z,0
2017-01-22T00:38:19.998Z,0
2017-01-22T00:39:20.194Z,0
2017-01-22T00:40:20.124Z,0
2017-01-22T00:41:20.100Z,0
2017-01-22T00:42:19.720Z,0
2017-01-22T00:43:20.026Z,0
2017-01-22T00:44:20.001Z,0
2017-01-22T00:45:20.030Z,0
2017-01-22T00:46:19.545Z,0
2017-01-22T00:47:19.922Z,0
2017-01-22T00:48:19.891Z,0
2017-01-22T00:49:19.862Z,0
2017-01-22T00:50:19.872Z,0
2017-01-22T00:51:19.406Z,0
2017-01-22T00:52:19.374Z,0
2017-01-22T00:53:19.338Z,0
2017-01-22T00:54:19.303Z,0
2017-01-22T00:55:19.283Z,0
2017-01-22T00:56:19.680Z,0
2017-01-22T00:57:19.626Z,0
2017-01-22T00:58:18.800Z,0
2017-01-22T00:59:19.161Z,0
2017-01-22T01:00:19.195Z,0
2017-01-22T01:01:19.514Z,0
2017-01-22T01:02:19.077Z,0
2017-01-22T01:03:19.452Z,0
2017-01-22T01:04:19.017Z,0
2017-01-22T01:05:18.610Z,0
2017-01-22T01:06:18.990Z,0
2017-01-22T01:07:18.937Z,0
2017-01-22T01:08:19.320Z,0
2017-01-22T01:09:18.481Z,0
2017-01-22T01:10:19.248Z,0
2017-01-22T01:11:18.833Z,0
2017-01-22T01:12:18.790Z,0
2017-01-22T01:13:18.410Z,0
2017-01-22T01:14:18.731Z,0
2017-01-22T01:15:19.102Z,0
2017-01-22T01:16:18.677Z,0
2017-01-22T01:17:18.647Z,0
2017-01-22T01:18:18.670Z,0
2017-01-22T01:19:18.985Z,0
2017-01-22T01:20:18.553Z,0
2017-01-22T01:21:18.584Z,0
2017-01-22T01:22:18.902Z,0
2017-01-22T01:23:18.486Z,0
2017-01-22T01:24:18.441Z,0
2017-01-22T01:25:18.810Z,0
2017-01-22T01:26:18.374Z,0
2017-01-22T01:27:18.352Z,0
2017-01-22T01:28:18.320Z,0
2017-01-22T01:29:17.886Z,0
2017-01-22T01:30:18.273Z,0
2017-01-22T01:31:18.638Z,0
2017-01-22T01:32:17.418Z,0
2017-01-22T01:33:17.802Z,0
2017-01-22T01:34:17.355Z,0
2017-01-22T01:35:18.134Z,0
2017-01-22T01:36:18.090Z,0
2017-01-22T01:37:17.672Z,0
2017-01-22T01:38:18.078Z,0
2017-01-22T01:39:18.425Z,0
2017-01-22T01:40:18.367Z,0
2017-01-22T01:41:18.340Z,0
2017-01-22T01:42:17.516Z,0
2017-01-22T01:43:17.898Z,0
2017-01-22T01:44:17.860Z,0
2017-01-22T01:45:17.824Z,0
2017-01-22T01:46:17.402Z,0
2017-01-22T01:47:17.767Z,0
2017-01-22T01:48:18.148Z,0
2017-01-22T01:49:18.111Z,0
2017-01-22T01:50:17.290Z,0
2017-01-22T01:51:17.670Z,0
2017-01-22T01:52:17.668Z,0
2017-01-22T01:53:17.593Z,0
2017-01-22T01:54:17.577Z,0
2017-01-22T01:55:17.537Z,0
2017-01-22T01:56:17.904Z,0
2017-01-22T01:57:17.865Z,0
2017-01-22T01:58:17.846Z,0
2017-01-22T01:59:17.420Z,0
2017-01-22T02:00:17.396Z,0
2017-01-22T02:01:17.758Z,0
2017-01-22T02:02:17.727Z,0
2017-01-22T02:03:17.346Z,0
2017-01-22T02:04:17.682Z,0
2017-01-22T02:05:17.299Z,0
2017-01-22T02:06:17.254Z,0
2017-01-22T02:07:17.595Z,0
2017-01-22T02:08:17.549Z,0
2017-01-22T02:09:17.525Z,0
2017-01-22T02:10:17.116Z,0
2017-01-22T02:11:16.670Z,0
2017-01-22T02:12:17.431Z,0
2017-01-22T02:13:17.414Z,0
2017-01-22T02:14:17.384Z,0
2017-01-22T02:15:17.029Z,0
2017-01-22T02:16:17.024Z,0
2017-01-22T02:17:17.295Z,0
2017-01-22T02:18:17.259Z,0
2017-01-22T02:19:16.032Z,0
2017-01-22T02:20:17.227Z,0
2017-01-22T02:21:17.174Z,0
2017-01-22T02:22:16.344Z,0
2017-01-22T02:23:17.129Z,0
2017-01-22T02:24:16.996Z,0
2017-01-22T02:25:16.259Z,0
2017-01-22T02:26:16.238Z,0
2017-01-22T02:27:17.046Z,0
2017-01-22T02:28:16.566Z,0
2017-01-22T02:29:16.537Z,0
2017-01-22T02:30:16.512Z,0
2017-01-22T02:31:16.482Z,0
2017-01-22T02:32:16.924Z,0
2017-01-22T02:33:16.422Z,0
2017-01-22T02:34:16.800Z,0
2017-01-22T02:35:16.764Z,0
2017-01-22T02:36:16.379Z,0
2017-01-22T02:37:16.297Z,0
2017-01-22T02:38:16.266Z,0
2017-01-22T02:39:15.849Z,0
2017-01-22T02:40:15.816Z,0
2017-01-22T02:41:16.589Z,0
2017-01-22T02:42:16.560Z,0
2017-01-22T02:43:16.124Z,0
2017-01-22T02:44:16.494Z,0
2017-01-22T02:45:16.064Z,0
2017-01-22T02:46:16.448Z,0
2017-01-22T02:47:16.405Z,0
2017-01-22T02:48:15.982Z,0
2017-01-22T02:49:16.359Z,0
2017-01-22T02:50:15.933Z,0
2017-01-22T02:51:16.280Z,0
2017-01-22T02:52:16.262Z,0
2017-01-22T02:53:15.836Z,0
2017-01-22T02:54:15.848Z,0
2017-01-22T02:55:16.161Z,0
2017-01-22T02:56:16.139Z,0
2017-01-22T02:57:15.309Z,0
2017-01-22T02:58:16.081Z,0
2017-01-22T02:59:16.048Z,0
2017-01-22T03:00:15.625Z,0
2017-01-22T03:01:15.271Z,0
2017-01-22T03:02:15.971Z,0
2017-01-22T03:03:15.936Z,0
2017-01-22T03:04:15.931Z,0
2017-01-22T03:05:15.876Z,0
2017-01-22T03:06:15.847Z,0
2017-01-22T03:07:15.808Z,0
2017-01-22T03:08:15.414Z,0
2017-01-22T03:09:15.757Z,0
2017-01-22T03:10:15.375Z,0
2017-01-22T03:11:15.296Z,0
2017-01-22T03:12:15.671Z,0
2017-01-22T03:13:15.665Z,0
2017-01-22T03:14:15.224Z,0
2017-01-22T03:15:15.232Z,0
2017-01-22T03:16:15.558Z,0
2017-01-22T03:17:14.720Z,0
2017-01-22T03:18:15.488Z,0
2017-01-22T03:19:15.068Z,0
2017-01-22T03:20:14.626Z,0
2017-01-22T03:21:14.997Z,0
2017-01-22T03:22:15.382Z,0
2017-01-22T03:23:14.953Z,0
2017-01-22T03:24:14.914Z,0
2017-01-22T03:25:14.883Z,0
2017-01-22T03:26:15.262Z,0
2017-01-22T03:27:15.228Z,0
2017-01-22T03:28:14.851Z,0
2017-01-22T03:29:14.798Z,0
2017-01-22T03:30:15.128Z,0
2017-01-22T03:31:15.102Z,0
2017-01-22T03:32:14.676Z,0
2017-01-22T03:33:15.103Z,0
2017-01-22T03:34:15.014Z,0
2017-01-22T03:35:14.999Z,0
2017-01-22T03:36:14.961Z,0
2017-01-22T03:37:14.922Z,0
2017-01-22T03:38:14.493Z,0
2017-01-22T03:39:14.860Z,0
2017-01-22T03:40:13.667Z,0
2017-01-22T03:41:14.801Z,0
2017-01-22T03:42:14.769Z,0
2017-01-22T03:43:14.349Z,0
2017-01-22T03:44:14.321Z,0
2017-01-22T03:45:14.679Z,0
2017-01-22T03:46:14.274Z,0
2017-01-22T03:47:14.630Z,0
2017-01-22T03:48:14.203Z,0
2017-01-22T03:49:14.577Z,0
2017-01-22T03:50:14.532Z,0
2017-01-22T03:51:14.112Z,0
2017-01-22T03:52:14.484Z,0
2017-01-22T03:53:13.647Z,0
2017-01-22T03:54:14.419Z,0
2017-01-22T03:55:14.384Z,0
2017-01-22T03:56:14.008Z,0
2017-01-22T03:57:14.338Z,0
2017-01-22T03:58:13.904Z,0
2017-01-22T03:59:14.270Z,0
2017-01-22T04:00:13.440Z,0
2017-01-22T04:01:14.221Z,0
2017-01-22T04:02:13.775Z,0
2017-01-22T04:03:14.153Z,0
2017-01-22T04:04:14.127Z,0
2017-01-22T04:05:13.691Z,0
2017-01-22T04:06:14.062Z,0
2017-01-22T04:07:13.635Z,0
2017-01-22T04:08:14.001Z,0
2017-01-22T04:09:13.172Z,0
2017-01-22T04:10:13.988Z,0
2017-01-22T04:11:13.513Z,0
2017-01-22T04:12:13.878Z,0
2017-01-22T04:13:13.843Z,0
2017-01-22T04:14:13.420Z,0
2017-01-22T04:15:13.392Z,0
2017-01-22T04:16:12.963Z,0
2017-01-22T04:17:13.725Z,0
2017-01-22T04:18:13.303Z,0
2017-01-22T04:19:13.668Z,0
2017-01-22T04:20:13.647Z,0
2017-01-22T04:21:13.210Z,0
2017-01-22T04:22:13.582Z,0
2017-01-22T04:23:12.351Z,0
2017-01-22T04:24:12.730Z,0
2017-01-22T04:25:13.090Z,0
2017-01-22T04:26:13.456Z,0
2017-01-22T04:27:13.060Z,0
2017-01-22T04:28:13.427Z,0
2017-01-22T04:29:12.582Z,0
2017-01-22T04:30:12.953Z,0
2017-01-22T04:31:13.565Z,0
2017-01-22T04:32:12.510Z,0
2017-01-22T04:33:12.888Z,0
2017-01-22T04:34:12.868Z,0
2017-01-22T04:35:13.186Z,0
2017-01-22T04:36:13.160Z,0
2017-01-22T04:37:12.736Z,0
2017-01-22T04:38:12.747Z,0
2017-01-22T04:39:13.266Z,0
2017-01-22T04:40:12.643Z,0
2017-01-22T04:41:13.008Z,0
2017-01-22T04:42:13.026Z,0
2017-01-22T04:43:12.551Z,0
2017-01-22T04:44:12.523Z,0
2017-01-22T04:45:12.493Z,0
2017-01-22T04:46:12.063Z,0
2017-01-22T04:47:12.830Z,0
2017-01-22T04:48:12.406Z,0
2017-01-22T04:49:12.413Z,0
2017-01-22T04:50:12.733Z,0
2017-01-22T04:51:11.908Z,0
2017-01-22T04:52:12.673Z,0
2017-01-22T04:53:12.643Z,0
2017-01-22T04:54:12.643Z,0
2017-01-22T04:55:11.786Z,0
2017-01-22T04:56:12.150Z,0
2017-01-22T04:57:12.127Z,0
2017-01-22T04:58:11.696Z,0
2017-01-22T04:59:12.463Z,0
2017-01-22T05:00:12.029Z,0
2017-01-22T05:01:12.405Z,0
2017-01-22T05:02:11.986Z,0
2017-01-22T05:03:11.944Z,0
2017-01-22T05:04:11.510Z,0
2017-01-22T05:05:11.884Z,0
2017-01-22T05:06:11.881Z,0
2017-01-22T05:07:11.835Z,0
2017-01-22T05:08:11.792Z,0
2017-01-22T05:09:11.763Z,0
2017-01-22T05:10:11.335Z,0
2017-01-22T05:11:12.099Z,0
2017-01-22T05:12:11.672Z,0
2017-01-22T05:13:11.239Z,0
2017-01-22T05:14:12.060Z,0
2017-01-22T05:15:11.184Z,0
2017-01-22T05:16:11.546Z,0
2017-01-22T05:17:11.128Z,0
2017-01-22T05:18:11.504Z,0
2017-01-22T05:19:11.465Z,0
2017-01-22T05:20:11.827Z,0
2017-01-22T05:21:11.442Z,0
2017-01-22T05:22:11.773Z,0
2017-01-22T05:23:11.345Z,0
2017-01-22T05:24:11.312Z,0
2017-01-22T05:25:10.915Z,0
2017-01-22T05:26:11.243Z,0
2017-01-22T05:27:11.618Z,0
2017-01-22T05:28:11.187Z,0
2017-01-22T05:29:11.144Z,0
2017-01-22T05:30:10.331Z,0
2017-01-22T05:31:11.094Z,0
2017-01-22T05:32:11.462Z,0
2017-01-22T05:33:11.443Z,0
2017-01-22T05:34:11.747Z,0
2017-01-22T05:35:11.377Z,0
2017-01-22T05:36:10.542Z,0
2017-01-22T05:37:10.916Z,0
2017-01-22T05:38:10.891Z,0
2017-01-22T05:39:10.457Z,0
2017-01-22T05:40:11.215Z,0
2017-01-22T05:41:11.234Z,0
2017-01-22T05:42:10.366Z,0
2017-01-22T05:43:11.126Z,0
2017-01-22T05:44:10.695Z,0
2017-01-22T05:45:10.278Z,0
2017-01-22T05:46:10.645Z,0
2017-01-22T05:47:11.018Z,0
2017-01-22T05:48:10.580Z,0
2017-01-22T05:49:10.958Z,0
2017-01-22T05:50:10.123Z,0
2017-01-22T05:51:10.890Z,0
2017-01-22T05:52:10.867Z,0
2017-01-22T05:53:10.426Z,0
2017-01-22T05:54:10.410Z,0
2017-01-22T05:55:10.767Z,0
2017-01-22T05:56:09.542Z,0
2017-01-22T05:57:10.309Z,0
2017-01-22T05:58:10.725Z,0
2017-01-22T05:59:10.252Z,0
2017-01-22T06:00:10.226Z,0
2017-01-22T06:01:10.088Z,0
2017-01-22T06:02:10.213Z,0
2017-01-22T06:03:10.538Z,0
2017-01-22T06:04:10.544Z,0
2017-01-22T06:05:10.461Z,0
2017-01-22T06:06:10.461Z,0
2017-01-22T06:07:10.408Z,0
2017-01-22T06:08:10.403Z,0
2017-01-22T06:09:10.386Z,0
2017-01-22T06:10:10.314Z,0
2017-01-22T06:11:09.944Z,0
2017-01-22T06:12:10.244Z,0
2017-01-22T06:13:09.824Z,0
2017-01-22T06:14:10.191Z,0
2017-01-22T06:15:09.764Z,0
2017-01-22T06:16:10.133Z,0
2017-01-22T06:17:09.706Z,0
2017-01-22T06:18:09.675Z,0
2017-01-22T06:19:10.033Z,0
2017-01-22T06:20:10.002Z,0
2017-01-22T06:21:09.999Z,0
2017-01-22T06:22:09.972Z,0
2017-01-22T06:23:09.932Z,0
2017-01-22T06:24:09.525Z,0
2017-01-22T06:25:09.914Z,0
2017-01-22T06:26:09.825Z,0
2017-01-22T06:27:09.795Z,0
2017-01-22T06:28:09.768Z,0
2017-01-22T06:29:09.733Z,0
2017-01-22T06:30:09.706Z,0
2017-01-22T06:31:09.285Z,0
2017-01-22T06:32:09.644Z,0
2017-01-22T06:33:09.691Z,0
2017-01-22T06:34:09.190Z,0
2017-01-22T06:35:09.160Z,0
2017-01-22T06:36:09.121Z,0
2017-01-22T06:37:09.100Z,0
2017-01-22T06:38:08.663Z,0
2017-01-22T06:39:09.026Z,0
2017-01-22T06:40:09.000Z,0
2017-01-22T06:41:09.375Z,0
2017-01-22T06:42:09.346Z,0
2017-01-22T06:43:08.987Z,0
2017-01-22T06:44:08.494Z,0
2017-01-22T06:45:08.850Z,0
2017-01-22T06:46:09.218Z,0
2017-01-22T06:47:09.196Z,0
2017-01-22T06:48:09.173Z,0
2017-01-22T06:49:08.340Z,0
2017-01-22T06:50:08.745Z,0
2017-01-22T06:51:08.680Z,0
2017-01-22T06:52:08.716Z,0
2017-01-22T06:53:08.210Z,0
2017-01-22T06:54:08.582Z,0
2017-01-22T06:55:08.951Z,0
2017-01-22T06:56:08.911Z,0
2017-01-22T06:57:08.489Z,0
2017-01-22T06:58:08.054Z,0
2017-01-22T06:59:08.891Z,0
2017-01-22T07:00:08.796Z,0
2017-01-22T07:01:07.980Z,0
2017-01-22T07:02:08.745Z,0
2017-01-22T07:03:08.306Z,0
2017-01-22T07:04:08.324Z,0
2017-01-22T07:05:08.656Z,0
2017-01-22T07:06:08.274Z,0
2017-01-22T07:07:08.589Z,0
2017-01-22T07:08:08.755Z,0
2017-01-22T07:09:07.723Z,0
2017-01-22T07:10:08.492Z,0
2017-01-22T07:11:08.061Z,0
2017-01-22T07:12:07.635Z,0
2017-01-22T07:13:08.002Z,5
2017-01-22T07:14:07.968Z,5
2017-01-22T07:15:07.964Z,5
2017-01-22T07:16:08.307Z,5
2017-01-22T07:17:08.181Z,5
2017-01-22T07:18:07.904Z,5
2017-01-22T07:19:07.855Z,5
2017-01-22T07:20:07.813Z,5
2017-01-22T07:21:07.755Z,10
2017-01-22T07:22:07.773Z,10
2017-01-22T07:23:08.094Z,10
2017-01-22T07:24:07.665Z,10
2017-01-22T07:25:08.042Z,10
2017-01-22T07:26:07.624Z,10
2017-01-22T07:27:07.580Z,15
2017-01-22T07:28:07.948Z,15
2017-01-22T07:29:07.122Z,15
2017-01-22T07:30:07.901Z,15
2017-01-22T07:31:07.449Z,15
2017-01-22T07:32:07.521Z,20
2017-01-22T07:33:07.413Z,20
2017-01-22T07:34:07.755Z,20
2017-01-22T07:35:07.741Z,20
2017-01-22T07:36:07.301Z,25
2017-01-22T07:37:07.267Z,25
2017-01-22T07:38:06.846Z,30
2017-01-22T07:39:07.619Z,30
2017-01-22T07:40:06.785Z,35
2017-01-22T07:41:07.158Z,35
2017-01-22T07:42:07.515Z,40
2017-01-22T07:43:07.486Z,45
2017-01-22T07:44:07.457Z,50
2017-01-22T07:45:07.035Z,50
2017-01-22T07:46:07.442Z,50
2017-01-22T07:47:07.367Z,50
2017-01-22T07:48:06.545Z,50
2017-01-22T07:49:07.307Z,50
2017-01-22T07:50:06.879Z,50
2017-01-22T07:51:06.449Z,55
2017-01-22T07:52:06.818Z,55
2017-01-22T07:53:06.410Z,55
2017-01-22T07:54:06.759Z,55
2017-01-22T07:55:05.945Z,55
2017-01-22T07:56:05.904Z,55
2017-01-22T07:57:07.071Z,55
2017-01-22T07:58:07.042Z,60
2017-01-22T07:59:06.610Z,60
2017-01-22T08:00:06.586Z,60
2017-01-22T08:01:06.700Z,65
2017-01-22T08:02:06.530Z,70
2017-01-22T08:03:06.906Z,75
2017-01-22T08:04:06.900Z,80
2017-01-22T08:05:06.834Z,85
2017-01-22T08:06:06.810Z,90
2017-01-22T08:07:06.785Z,95
2017-01-22T08:08:06.761Z,100
2017-01-22T08:09:06.734Z,100
2017-01-22T08:10:05.905Z,100
2017-01-22T08:11:06.283Z,100
2017-01-22T08:12:06.246Z,105
2017-01-22T08:13:05.824Z,105
2017-01-22T08:14:06.237Z,110
2017-01-22T08:15:06.557Z,110
2017-01-22T08:16:06.534Z,115
2017-01-22T08:17:06.106Z,115
2017-01-22T08:18:05.693Z,115
2017-01-22T08:19:05.666Z,120
2017-01-22T08:20:06.426Z,120
2017-01-22T08:21:05.596Z,125
2017-01-22T08:22:06.456Z,125
2017-01-22T08:23:05.563Z,135
2017-01-22T08:24:05.918Z,130
2017-01-22T08:25:06.361Z,130
2017-01-22T08:26:05.878Z,135
2017-01-22T08:27:06.244Z,140
2017-01-22T08:28:05.880Z,140
2017-01-22T08:29:06.257Z,140
2017-01-22T08:30:05.779Z,140
2017-01-22T08:31:05.800Z,140
2017-01-22T08:32:05.716Z,140
2017-01-22T08:33:05.695Z,140
2017-01-22T08:34:05.667Z,140
2017-01-22T08:35:05.654Z,140
2017-01-22T08:36:06.027Z,145
2017-01-22T08:37:06.016Z,145
2017-01-22T08:38:05.197Z,145
2017-01-22T08:39:05.560Z,145
2017-01-22T08:40:05.944Z,150
2017-01-22T08:41:05.512Z,150
2017-01-22T08:42:05.494Z,150
2017-01-22T08:43:05.064Z,150
2017-01-22T08:44:05.845Z,150
2017-01-22T08:45:05.829Z,155
2017-01-22T08:46:05.801Z,155
2017-01-22T08:47:05.027Z,155
2017-01-22T08:48:05.789Z,160
2017-01-22T08:49:04.978Z,160
2017-01-22T08:50:05.722Z,165
2017-01-22T08:51:05.683Z,165
2017-01-22T08:52:05.662Z,170
2017-01-22T08:53:05.649Z,170
2017-01-22T08:54:05.622Z,175
2017-01-22T08:55:05.200Z,175
2017-01-22T08:56:05.577Z,195
2017-01-22T08:57:05.562Z,180
2017-01-22T08:58:05.532Z,180
2017-01-22T08:59:05.118Z,185
2017-01-22T09:00:05.097Z,185
2017-01-22T09:01:04.683Z,190
2017-01-22T09:02:05.460Z,180
2017-01-22T09:03:04.643Z,150
2017-01-22T09:04:04.608Z,145
2017-01-22T09:05:05.009Z,145
2017-01-22T09:06:05.368Z,135
2017-01-22T09:07:05.347Z,135
2017-01-22T09:08:04.978Z,135
2017-01-22T09:09:05.304Z,135
2017-01-22T09:10:04.885Z,135
2017-01-22T09:11:04.459Z,135
2017-01-22T09:12:04.479Z,135
2017-01-22T09:13:04.818Z,135
2017-01-22T09:14:04.792Z,135
2017-01-22T09:15:05.185Z,135
2017-01-22T09:16:05.147Z,135
2017-01-22T09:17:04.770Z,135
2017-01-22T09:18:05.105Z,135
2017-01-22T09:19:05.089Z,135
2017-01-22T09:20:05.104Z,135
2017-01-22T09:21:05.035Z,135
2017-01-22T09:22:04.600Z,135
2017-01-22T09:23:04.592Z,135
2017-01-22T09:24:04.166Z,135
2017-01-22T09:25:04.945Z,135
2017-01-22T09:26:04.552Z,135
2017-01-22T09:27:04.893Z,135
2017-01-22T09:28:04.866Z,135
2017-01-22T09:29:04.442Z,135
2017-01-22T09:30:04.814Z,135
2017-01-22T09:31:04.420Z,130
2017-01-22T09:32:04.373Z,130
2017-01-22T09:33:04.352Z,130
2017-01-22T09:34:04.752Z,130
2017-01-22T09:35:04.993Z,130
2017-01-22T09:36:04.677Z,130
2017-01-22T09:37:03.917Z,130
2017-01-22T09:38:04.665Z,130
2017-01-22T09:39:04.596Z,130
2017-01-22T09:40:04.165Z,130
2017-01-22T09:41:04.547Z,135
2017-01-22T09:42:04.140Z,130
2017-01-22T09:43:04.080Z,135
2017-01-22T09:44:03.663Z,135
2017-01-22T09:45:04.033Z,130
2017-01-22T09:46:03.613Z,135
2017-01-22T09:47:03.989Z,135
2017-01-22T09:48:04.353Z,135
2017-01-22T09:49:04.383Z,135
2017-01-22T09:50:04.355Z,135
2017-01-22T09:51:04.272Z,135
2017-01-22T09:52:04.297Z,135
2017-01-22T09:53:04.227Z,135
2017-01-22T09:54:04.200Z,135
2017-01-22T09:55:04.179Z,135
2017-01-22T09:56:03.753Z,135
2017-01-22T09:57:04.141Z,135
2017-01-22T09:58:04.101Z,135
2017-01-22T09:59:02.863Z,135
2017-01-22T10:00:03.644Z,135
2017-01-22T10:01:03.676Z,135
2017-01-22T10:02:03.996Z,135
2017-01-22T10:03:03.569Z,135
2017-01-22T10:04:03.624Z,135
2017-01-22T10:05:03.156Z,135
2017-01-22T10:06:03.093Z,135
2017-01-22T10:07:03.867Z,135
2017-01-22T10:08:03.039Z,135
2017-01-22T10:09:03.407Z,135
2017-01-22T10:10:03.780Z,135
2017-01-22T10:11:03.761Z,135
2017-01-22T10:12:03.740Z,135
2017-01-22T10:13:03.293Z,140
2017-01-22T10:14:03.266Z,140
2017-01-22T10:15:03.242Z,140
2017-01-22T10:16:03.611Z,140
2017-01-22T10:17:03.195Z,140
2017-01-22T10:18:03.565Z,140
2017-01-22T10:19:03.545Z,140
2017-01-22T10:20:02.309Z,140
2017-01-22T10:21:03.079Z,140
2017-01-22T10:22:03.455Z,140
2017-01-22T10:23:01.832Z,140
2017-01-22T10:24:02.605Z,140
2017-01-22T10:25:03.378Z,140
2017-01-22T10:26:02.947Z,140
2017-01-22T10:27:02.919Z,140
2017-01-22T10:28:03.305Z,140
2017-01-22T10:29:02.867Z,140
2017-01-22T10:30:02.432Z,140
2017-01-22T10:31:03.213Z,140
2017-01-22T10:32:02.806Z,140
2017-01-22T10:33:02.614Z,140
2017-01-22T10:34:03.371Z,140
2017-01-22T10:35:02.782Z,140
2017-01-22T10:36:03.387Z,140
2017-01-22T10:37:03.060Z,140
2017-01-22T10:38:02.625Z,140
2017-01-22T10:39:02.592Z,140
2017-01-22T10:40:02.165Z,140
2017-01-22T10:41:02.564Z,140
2017-01-22T10:42:02.116Z,140
2017-01-22T10:43:02.504Z,140
2017-01-22T10:44:02.963Z,140
2017-01-22T10:45:02.435Z,140
2017-01-22T10:46:02.812Z,140
2017-01-22T10:47:02.375Z,140
2017-01-22T10:48:02.435Z,140
2017-01-22T10:49:02.737Z,140
2017-01-22T10:50:02.319Z,140
2017-01-22T10:51:02.212Z,140
2017-01-22T10:52:02.660Z,140
2017-01-22T10:53:02.220Z,140
2017-01-22T10:54:01.806Z,140
2017-01-22T10:55:02.168Z,140
2017-01-22T10:56:02.543Z,140
2017-01-22T10:57:02.116Z,140
2017-01-22T10:58:02.496Z,140
2017-01-22T10:59:02.461Z,140
2017-01-22T11:00:02.068Z,140
2017-01-22T11:01:02.709Z,140
2017-01-22T11:02:01.983Z,140
2017-01-22T11:03:01.966Z,140
2017-01-22T11:04:02.331Z,140
2017-01-22T11:05:01.897Z,140
2017-01-22T11:06:02.268Z,140
2017-01-22T11:07:01.843Z,140
2017-01-22T11:08:02.221Z,140
2017-01-22T11:09:02.104Z,140
2017-01-22T11:10:01.770Z,140
2017-01-22T11:11:01.945Z,140
2017-01-22T11:12:02.119Z,140
2017-01-22T11:13:01.701Z,140
2017-01-22T11:14:01.678Z,140
2017-01-22T11:15:01.240Z,140
2017-01-22T11:16:01.669Z,140
2017-01-22T11:17:02.021Z,140
2017-01-22T11:18:02.012Z,140
2017-01-22T11:19:00.343Z,140
2017-01-22T11:20:01.913Z,140
2017-01-22T11:21:01.479Z,140
2017-01-22T11:22:01.856Z,140
2017-01-22T11:23:01.825Z,140
2017-01-22T11:24:01.814Z,140
2017-01-22T11:25:01.423Z,140
2017-01-22T11:26:01.345Z,140
2017-01-22T11:27:00.921Z,140
2017-01-22T11:28:01.701Z,140
2017-01-22T11:29:01.672Z,140
2017-01-22T11:30:00.844Z,140
2017-01-22T11:31:01.671Z,140
2017-01-22T11:32:01.193Z,135
2017-01-22T11:33:01.569Z,135
2017-01-22T11:34:01.550Z,135
2017-01-22T11:35:01.118Z,135
2017-01-22T11:36:01.501Z,135
2017-01-22T11:37:15.942Z,135
2017-01-22T11:38:01.447Z,135
2017-01-22T11:39:01.001Z,135
2017-01-22T11:40:01.051Z,135
2017-01-22T11:41:01.414Z,135
2017-01-22T11:42:00.928Z,135
2017-01-22T11:43:00.501Z,135
2017-01-22T11:44:01.284Z,135
2017-01-22T11:45:01.249Z,135
2017-01-22T11:46:00.826Z,135
2017-01-22T11:47:01.207Z,135
2017-01-22T11:48:01.167Z,135
2017-01-22T11:49:00.777Z,130
2017-01-22T11:50:01.123Z,130
2017-01-22T11:51:00.292Z,130
2017-01-22T11:52:01.218Z,130
2017-01-22T11:53:00.638Z,130
2017-01-22T11:54:00.618Z,130
2017-01-22T11:55:00.989Z,130
2017-01-22T11:56:00.572Z,130
2017-01-22T11:57:00.530Z,130
2017-01-22T11:58:00.513Z,130
2017-01-22T11:59:00.888Z,130
2017-01-22T12:00:00.453Z,130
2017-01-22T12:01:00.435Z,130
2017-01-22T12:02:00.413Z,130
2017-01-22T12:03:00.777Z,130
2017-01-22T12:04:00.358Z,130
2017-01-22T12:05:00.326Z,130
2017-01-22T12:05:59.902Z,130
2017-01-22T12:07:00.677Z,130
2017-01-22T12:08:00.249Z,130
2017-01-22T12:09:00.620Z,130
2017-01-22T12:10:00.255Z,130
2017-01-22T12:11:00.174Z,130
2017-01-22T12:12:00.541Z,125
2017-01-22T12:13:00.121Z,130
2017-01-22T12:14:00.128Z,130
2017-01-22T12:15:00.771Z,125
2017-01-22T12:15:59.696Z,125
2017-01-22T12:16:59.636Z,125
2017-01-22T12:17:59.990Z,125
2017-01-22T12:19:00.383Z,125
2017-01-22T12:19:59.541Z,125
2017-01-22T12:21:00.314Z,125
2017-01-22T12:22:00.293Z,125
2017-01-22T12:22:59.866Z,125
2017-01-22T12:23:59.844Z,125
2017-01-22T12:25:00.208Z,125
2017-01-22T12:25:59.384Z,125
2017-01-22T12:26:59.779Z,125
2017-01-22T12:28:00.185Z,125
2017-01-22T12:29:00.015Z,125
2017-01-22T12:29:59.289Z,125
2017-01-22T12:30:59.679Z,125
2017-01-22T12:31:59.273Z,125
2017-01-22T12:33:00.022Z,125
2017-01-22T12:33:59.576Z,120
2017-01-22T12:34:59.564Z,120
2017-01-22T12:35:59.978Z,120
2017-01-22T12:37:00.000Z,120
2017-01-22T12:37:59.470Z,120
2017-01-22T12:38:58.302Z,120
2017-01-22T12:39:59.432Z,120
2017-01-22T12:40:59.401Z,120
2017-01-22T12:41:59.801Z,120
2017-01-22T12:42:59.746Z,120
2017-01-22T12:43:59.776Z,120
2017-01-22T12:44:59.298Z,120
2017-01-22T12:45:59.563Z,120
2017-01-22T12:46:59.638Z,120
2017-01-22T12:47:59.663Z,120
2017-01-22T12:48:58.390Z,120
2017-01-22T12:49:59.566Z,120
2017-01-22T12:50:59.547Z,120
2017-01-22T12:51:58.723Z,120
2017-01-22T12:52:59.119Z,120
2017-01-22T12:53:59.111Z,120
2017-01-22T12:54:58.699Z,120
2017-01-22T12:55:59.417Z,120
2017-01-22T12:56:58.657Z,120
2017-01-22T12:57:59.349Z,120
2017-01-22T12:58:58.994Z,115
2017-01-22T12:59:59.310Z,115
2017-01-22T13:00:58.501Z,115
2017-01-22T13:01:59.253Z,115
2017-01-22T13:02:58.821Z,115
2017-01-22T13:03:58.804Z,115
2017-01-22T13:04:59.229Z,115
2017-01-22T13:05:59.159Z,115
2017-01-22T13:06:58.722Z,115
2017-01-22T13:07:58.299Z,115
2017-01-22T13:08:58.720Z,115
2017-01-22T13:09:59.108Z,115
2017-01-22T13:10:59.017Z,115
2017-01-22T13:11:58.992Z,115
2017-01-22T13:12:59.058Z,115
2017-01-22T13:13:58.984Z,115
2017-01-22T13:14:58.818Z,115
2017-01-22T13:15:58.524Z,115
2017-01-22T13:16:58.068Z,110
2017-01-22T13:17:58.687Z,110
2017-01-22T13:18:58.458Z,110
2017-01-22T13:19:58.791Z,110
2017-01-22T13:20:58.362Z,110
2017-01-22T13:21:58.346Z,110
2017-01-22T13:22:58.768Z,110
2017-01-22T13:23:58.325Z,110
2017-01-22T13:24:58.653Z,110
2017-01-22T13:25:57.881Z,110
2017-01-22T13:26:58.598Z,110
2017-01-22T13:27:58.604Z,110
2017-01-22T13:28:57.742Z,110
2017-01-22T13:29:57.730Z,110
2017-01-22T13:30:58.115Z,110
2017-01-22T13:31:58.065Z,110
2017-01-22T13:32:58.064Z,110
2017-01-22T13:33:58.054Z,105
2017-01-22T13:34:58.888Z,105
2017-01-22T13:35:57.998Z,105
2017-01-22T13:36:57.554Z,105
2017-01-22T13:37:58.215Z,105
2017-01-22T13:38:57.885Z,105
2017-01-22T13:39:57.473Z,105
2017-01-22T13:40:57.878Z,105
2017-01-22T13:41:57.854Z,105
2017-01-22T13:42:58.223Z,105
2017-01-22T13:43:57.769Z,105
2017-01-22T13:44:57.730Z,105
2017-01-22T13:45:58.161Z,105
2017-01-22T13:46:58.087Z,105
2017-01-22T13:47:57.659Z,100
2017-01-22T13:48:57.629Z,100
2017-01-22T13:49:57.619Z,100
2017-01-22T13:50:57.621Z,100
2017-01-22T13:51:57.604Z,100
2017-01-22T13:52:57.550Z,100
2017-01-22T13:53:57.911Z,100
2017-01-22T13:54:57.892Z,100
2017-01-22T13:55:57.466Z,100
2017-01-22T13:56:57.454Z,100
2017-01-22T13:57:57.833Z,100
2017-01-22T13:58:56.989Z,95
2017-01-22T13:59:57.758Z,95
2017-01-22T14:00:56.935Z,95
2017-01-22T14:01:57.288Z,95
2017-01-22T14:02:57.326Z,95
2017-01-22T14:03:57.537Z,95
2017-01-22T14:04:57.629Z,95
2017-01-22T14:05:57.583Z,95
2017-01-22T14:06:57.608Z,95
2017-01-22T14:07:56.734Z,95
2017-01-22T14:08:57.526Z,95
2017-01-22T14:09:57.482Z,90
2017-01-22T14:10:56.666Z,90
2017-01-22T14:11:57.509Z,90
2017-01-22T14:12:57.024Z,90
2017-01-22T14:13:57.037Z,90
2017-01-22T14:14:56.583Z,90
2017-01-22T14:15:56.941Z,90
2017-01-22T14:16:57.312Z,90
2017-01-22T14:17:56.985Z,90